McCaulley, Texas
Current Conditions -  °F | °C
As of 12:35 PM on Sunday 21 Dec 2014 (Local Time) from KSWW Reporting Station
Clear Clear  
Wind Chill: 59°   Ceiling: Unl
Heat Index: 59°   Visibility: 10mi
Dew Point: 40°   Wind: 22mph
Humidity: 50%   Direction: 190°S
Pressure: 29.88"   Gusts: 28mph
Location:  32.78°N, 100.21°W
Report Text: KSWW 211835Z AUTO 19019G24KT 10SM CLR 15/05 A2988 RMK AO2 T01510047
Loading
Personal Weather Stations






























Interactive Weather Map New forecast layout! Learn more

10-Day Weather Forecast

Advertisements
Track Severe Weather on mobile